sensor_id;sensor_type;location;lat;lon;timestamp;temperature;humidity
18139;DHT22;9195;53.176;9.486;2022-11-15T00:00:24;8.60;99.90
18139;DHT22;9195;53.176;9.486;2022-11-15T00:02:52;8.50;99.90
18139;DHT22;9195;53.176;9.486;2022-11-15T00:05:18;8.30;99.90
18139;DHT22;9195;53.176;9.486;2022-11-15T00:07:43;8.20;99.90
18139;DHT22;9195;53.176;9.486;2022-11-15T00:10:09;8.10;99.90
18139;DHT22;9195;53.176;9.486;2022-11-15T00:12:34;8.00;99.90
18139;DHT22;9195;53.176;9.486;2022-11-15T00:15:00;7.90;99.90
18139;DHT22;9195;53.176;9.486;2022-11-15T00:17:26;7.80;99.90
18139;DHT22;9195;53.176;9.486;2022-11-15T00:19:51;7.80;99.90
18139;DHT22;9195;53.176;9.486;2022-11-15T00:22:17;7.70;99.90
18139;DHT22;9195;53.176;9.486;2022-11-15T00:24:42;7.70;99.90
18139;DHT22;9195;53.176;9.486;2022-11-15T00:27:08;7.60;99.90
18139;DHT22;9195;53.176;9.486;2022-11-15T00:29:34;7.50;99.90
18139;DHT22;9195;53.176;9.486;2022-11-15T00:31:59;7.40;99.90
18139;DHT22;9195;53.176;9.486;2022-11-15T00:34:25;7.40;99.90
18139;DHT22;9195;53.176;9.486;2022-11-15T00:36:51;7.40;99.90
18139;DHT22;9195;53.176;9.486;2022-11-15T00:39:16;7.30;99.90
18139;DHT22;9195;53.176;9.486;2022-11-15T00:41:42;7.30;99.90
18139;DHT22;9195;53.176;9.486;2022-11-15T00:44:07;7.20;99.90
18139;DHT22;9195;53.176;9.486;2022-11-15T00:46:33;7.30;99.90
18139;DHT22;9195;53.176;9.486;2022-11-15T00:48:59;7.30;99.90
18139;DHT22;9195;53.176;9.486;2022-11-15T00:51:24;7.30;99.90
18139;DHT22;9195;53.176;9.486;2022-11-15T00:53:50;7.30;99.90
18139;DHT22;9195;53.176;9.486;2022-11-15T00:56:15;7.30;99.90
18139;DHT22;9195;53.176;9.486;2022-11-15T00:58:41;7.20;99.90
18139;DHT22;9195;53.176;9.486;2022-11-15T01:01:12;7.20;99.90
18139;DHT22;9195;53.176;9.486;2022-11-15T01:03:39;7.20;99.90
18139;DHT22;9195;53.176;9.486;2022-11-15T01:06:06;7.20;99.90
18139;DHT22;9195;53.176;9.486;2022-11-15T01:08:32;7.10;99.90
18139;DHT22;9195;53.176;9.486;2022-11-15T01:11:07;7.10;99.90
18139;DHT22;9195;53.176;9.486;2022-11-15T01:13:34;7.10;99.90
18139;DHT22;9195;53.176;9.486;2022-11-15T01:16:15;7.00;99.90
18139;DHT22;9195;53.176;9.486;2022-11-15T01:18:42;7.00;99.90
18139;DHT22;9195;53.176;9.486;2022-11-15T01:21:10;7.00;99.90
18139;DHT22;9195;53.176;9.486;2022-11-15T01:23:36;7.00;99.90
18139;DHT22;9195;53.176;9.486;2022-11-15T01:26:04;6.90;99.90
18139;DHT22;9195;53.176;9.486;2022-11-15T01:28:36;6.90;99.90
18139;DHT22;9195;53.176;9.486;2022-11-15T01:31:05;6.90;99.90
18139;DHT22;9195;53.176;9.486;2022-11-15T01:33:34;6.90;99.90
18139;DHT22;9195;53.176;9.486;2022-11-15T01:36:14;6.90;99.90
18139;DHT22;9195;53.176;9.486;2022-11-15T01:38:39;6.80;99.90
18139;DHT22;9195;53.176;9.486;2022-11-15T01:41:05;6.90;99.90
18139;DHT22;9195;53.176;9.486;2022-11-15T01:43:33;6.80;99.90
18139;DHT22;9195;53.176;9.486;2022-11-15T01:46:25;6.80;99.90
18139;DHT22;9195;53.176;9.486;2022-11-15T01:48:53;6.80;99.90
18139;DHT22;9195;53.176;9.486;2022-11-15T01:51:22;6.80;99.90
18139;DHT22;9195;53.176;9.486;2022-11-15T01:53:52;6.70;99.90
18139;DHT22;9195;53.176;9.486;2022-11-15T01:56:23;6.70;99.90
18139;DHT22;9195;53.176;9.486;2022-11-15T01:58:51;6.70;99.90
18139;DHT22;9195;53.176;9.486;2022-11-15T02:01:18;6.70;99.90
18139;DHT22;9195;53.176;9.486;2022-11-15T02:03:51;6.70;99.90
18139;DHT22;9195;53.176;9.486;2022-11-15T02:06:18;6.60;99.90
18139;DHT22;9195;53.176;9.486;2022-11-15T02:08:44;6.60;99.90
18139;DHT22;9195;53.176;9.486;2022-11-15T02:11:10;6.60;99.90
18139;DHT22;9195;53.176;9.486;2022-11-15T02:13:36;6.60;99.90
18139;DHT22;9195;53.176;9.486;2022-11-15T02:21:58;6.70;99.90
18139;DHT22;9195;53.176;9.486;2022-11-15T02:30:00;6.80;99.90
18139;DHT22;9195;53.176;9.486;2022-11-15T02:36:08;6.80;99.90
18139;DHT22;9195;53.176;9.486;2022-11-15T02:38:43;7.00;99.90
18139;DHT22;9195;53.176;9.486;2022-11-15T02:41:22;7.10;99.90
18139;DHT22;9195;53.176;9.486;2022-11-15T02:49:28;7.50;99.90
18139;DHT22;9195;53.176;9.486;2022-11-15T02:51:55;7.70;99.90
18139;DHT22;9195;53.176;9.486;2022-11-15T02:54:30;7.80;99.90
18139;DHT22;9195;53.176;9.486;2022-11-15T02:57:03;7.90;99.90
18139;DHT22;9195;53.176;9.486;2022-11-15T03:13:34;8.40;99.90
18139;DHT22;9195;53.176;9.486;2022-11-15T03:16:14;8.50;99.90
18139;DHT22;9195;53.176;9.486;2022-11-15T03:18:47;8.50;99.90
18139;DHT22;9195;53.176;9.486;2022-11-15T03:21:16;8.60;99.90
18139;DHT22;9195;53.176;9.486;2022-11-15T03:23:44;8.60;99.90
18139;DHT22;9195;53.176;9.486;2022-11-15T03:26:14;8.70;99.90
18139;DHT22;9195;53.176;9.486;2022-11-15T03:28:47;8.70;99.90
18139;DHT22;9195;53.176;9.486;2022-11-15T03:31:16;8.70;99.90
18139;DHT22;9195;53.176;9.486;2022-11-15T03:34:04;8.80;99.90
18139;DHT22;9195;53.176;9.486;2022-11-15T03:36:32;8.80;99.90
18139;DHT22;9195;53.176;9.486;2022-11-15T03:39:02;8.90;99.90
18139;DHT22;9195;53.176;9.486;2022-11-15T03:44:43;9.00;99.90
18139;DHT22;9195;53.176;9.486;2022-11-15T03:47:34;9.00;99.90
18139;DHT22;9195;53.176;9.486;2022-11-15T03:50:04;9.00;99.90
18139;DHT22;9195;53.176;9.486;2022-11-15T03:52:33;9.00;99.90
18139;DHT22;9195;53.176;9.486;2022-11-15T03:55:01;9.10;99.90
18139;DHT22;9195;53.176;9.486;2022-11-15T03:57:27;9.20;99.90
18139;DHT22;9195;53.176;9.486;2022-11-15T03:59:53;9.30;99.90
18139;DHT22;9195;53.176;9.486;2022-11-15T04:02:19;9.20;99.90
18139;DHT22;9195;53.176;9.486;2022-11-15T04:04:45;9.30;99.90
18139;DHT22;9195;53.176;9.486;2022-11-15T04:07:10;9.40;99.90
18139;DHT22;9195;53.176;9.486;2022-11-15T04:09:36;9.40;99.90
18139;DHT22;9195;53.176;9.486;2022-11-15T04:12:22;9.40;99.90
18139;DHT22;9195;53.176;9.486;2022-11-15T04:14:59;9.40;99.90
18139;DHT22;9195;53.176;9.486;2022-11-15T04:17:45;9.50;99.90
18139;DHT22;9195;53.176;9.486;2022-11-15T04:23:00;9.50;99.90
18139;DHT22;9195;53.176;9.486;2022-11-15T04:25:45;9.60;99.90
18139;DHT22;9195;53.176;9.486;2022-11-15T04:28:12;9.70;99.90
18139;DHT22;9195;53.176;9.486;2022-11-15T04:30:38;9.70;99.90
18139;DHT22;9195;53.176;9.486;2022-11-15T04:33:03;9.70;99.90
18139;DHT22;9195;53.176;9.486;2022-11-15T04:35:29;9.70;99.90
18139;DHT22;9195;53.176;9.486;2022-11-15T04:37:55;9.80;99.90
18139;DHT22;9195;53.176;9.486;2022-11-15T04:40:21;9.80;99.90
18139;DHT22;9195;53.176;9.486;2022-11-15T04:42:47;9.90;99.90
18139;DHT22;9195;53.176;9.486;2022-11-15T04:45:13;9.90;99.90
18139;DHT22;9195;53.176;9.486;2022-11-15T04:47:38;10.00;99.90
18139;DHT22;9195;53.176;9.486;2022-11-15T04:50:04;10.00;99.90
18139;DHT22;9195;53.176;9.486;2022-11-15T04:52:30;10.10;99.90
18139;DHT22;9195;53.176;9.486;2022-11-15T04:54:56;10.10;99.90
18139;DHT22;9195;53.176;9.486;2022-11-15T04:57:21;10.10;99.90
18139;DHT22;9195;53.176;9.486;2022-11-15T04:59:47;10.10;99.90
18139;DHT22;9195;53.176;9.486;2022-11-15T05:02:12;10.20;99.90
18139;DHT22;9195;53.176;9.486;2022-11-15T05:04:38;10.20;99.90
18139;DHT22;9195;53.176;9.486;2022-11-15T05:07:04;10.30;99.90
18139;DHT22;9195;53.176;9.486;2022-11-15T05:09:29;10.30;99.90
18139;DHT22;9195;53.176;9.486;2022-11-15T05:11:55;10.40;99.90
18139;DHT22;9195;53.176;9.486;2022-11-15T05:14:21;10.40;99.90
18139;DHT22;9195;53.176;9.486;2022-11-15T05:16:46;10.50;99.90
18139;DHT22;9195;53.176;9.486;2022-11-15T05:19:12;10.50;99.90
18139;DHT22;9195;53.176;9.486;2022-11-15T05:21:38;10.50;99.90
18139;DHT22;9195;53.176;9.486;2022-11-15T05:24:04;10.50;99.90
18139;DHT22;9195;53.176;9.486;2022-11-15T05:26:30;10.60;99.90
18139;DHT22;9195;53.176;9.486;2022-11-15T05:28:57;10.60;99.90
18139;DHT22;9195;53.176;9.486;2022-11-15T05:31:24;10.70;99.90
18139;DHT22;9195;53.176;9.486;2022-11-15T05:33:50;10.70;99.90
18139;DHT22;9195;53.176;9.486;2022-11-15T05:36:41;10.80;99.90
18139;DHT22;9195;53.176;9.486;2022-11-15T05:39:07;10.90;99.90
18139;DHT22;9195;53.176;9.486;2022-11-15T05:41:38;10.90;99.90
18139;DHT22;9195;53.176;9.486;2022-11-15T05:44:07;10.90;99.90
18139;DHT22;9195;53.176;9.486;2022-11-15T05:46:35;10.90;99.90
18139;DHT22;9195;53.176;9.486;2022-11-15T05:49:03;11.00;99.90
18139;DHT22;9195;53.176;9.486;2022-11-15T05:51:30;11.00;99.90
18139;DHT22;9195;53.176;9.486;2022-11-15T05:53:58;11.00;99.90
18139;DHT22;9195;53.176;9.486;2022-11-15T05:56:25;11.00;99.90
18139;DHT22;9195;53.176;9.486;2022-11-15T05:58:55;11.00;99.90
18139;DHT22;9195;53.176;9.486;2022-11-15T06:01:25;11.00;99.90
18139;DHT22;9195;53.176;9.486;2022-11-15T06:03:51;11.00;99.90
18139;DHT22;9195;53.176;9.486;2022-11-15T06:06:16;11.10;99.90
18139;DHT22;9195;53.176;9.486;2022-11-15T06:08:42;11.10;99.90
18139;DHT22;9195;53.176;9.486;2022-11-15T06:11:08;11.10;99.90
18139;DHT22;9195;53.176;9.486;2022-11-15T06:13:34;11.10;99.90
18139;DHT22;9195;53.176;9.486;2022-11-15T06:16:00;11.10;99.90
18139;DHT22;9195;53.176;9.486;2022-11-15T06:18:25;11.20;99.90
18139;DHT22;9195;53.176;9.486;2022-11-15T06:20:51;11.20;99.90
18139;DHT22;9195;53.176;9.486;2022-11-15T06:23:17;11.20;99.90
18139;DHT22;9195;53.176;9.486;2022-11-15T06:25:42;11.20;99.90
18139;DHT22;9195;53.176;9.486;2022-11-15T06:28:08;11.20;99.90
18139;DHT22;9195;53.176;9.486;2022-11-15T06:30:34;11.20;99.90
18139;DHT22;9195;53.176;9.486;2022-11-15T06:33:01;11.20;99.90
18139;DHT22;9195;53.176;9.486;2022-11-15T06:35:27;11.20;99.90
18139;DHT22;9195;53.176;9.486;2022-11-15T06:37:53;11.30;99.90
18139;DHT22;9195;53.176;9.486;2022-11-15T06:40:19;11.30;99.90
18139;DHT22;9195;53.176;9.486;2022-11-15T06:42:45;11.30;99.90
18139;DHT22;9195;53.176;9.486;2022-11-15T06:45:10;11.30;99.90
18139;DHT22;9195;53.176;9.486;2022-11-15T06:47:46;11.30;99.90
18139;DHT22;9195;53.176;9.486;2022-11-15T06:50:13;11.40;99.90
18139;DHT22;9195;53.176;9.486;2022-11-15T06:52:38;11.40;99.90
18139;DHT22;9195;53.176;9.486;2022-11-15T06:55:04;11.40;99.90
18139;DHT22;9195;53.176;9.486;2022-11-15T06:57:30;11.40;99.90
18139;DHT22;9195;53.176;9.486;2022-11-15T06:59:57;11.40;99.90
18139;DHT22;9195;53.176;9.486;2022-11-15T07:02:23;11.40;99.90
18139;DHT22;9195;53.176;9.486;2022-11-15T07:04:49;11.50;99.90
18139;DHT22;9195;53.176;9.486;2022-11-15T07:07:14;11.50;99.90
18139;DHT22;9195;53.176;9.486;2022-11-15T07:09:40;11.50;99.90
18139;DHT22;9195;53.176;9.486;2022-11-15T07:12:06;11.60;99.90
18139;DHT22;9195;53.176;9.486;2022-11-15T07:14:31;11.60;99.90
18139;DHT22;9195;53.176;9.486;2022-11-15T07:16:57;11.70;99.90
18139;DHT22;9195;53.176;9.486;2022-11-15T07:19:22;11.70;99.90
18139;DHT22;9195;53.176;9.486;2022-11-15T07:21:48;11.80;99.90
18139;DHT22;9195;53.176;9.486;2022-11-15T07:24:14;11.80;99.90
18139;DHT22;9195;53.176;9.486;2022-11-15T07:26:39;11.80;99.90
18139;DHT22;9195;53.176;9.486;2022-11-15T07:29:05;11.90;99.90
18139;DHT22;9195;53.176;9.486;2022-11-15T07:31:31;11.90;99.90
18139;DHT22;9195;53.176;9.486;2022-11-15T07:33:56;11.80;99.90
18139;DHT22;9195;53.176;9.486;2022-11-15T07:36:22;11.80;99.90
18139;DHT22;9195;53.176;9.486;2022-11-15T07:38:48;11.80;99.90
18139;DHT22;9195;53.176;9.486;2022-11-15T07:41:13;11.80;99.90
18139;DHT22;9195;53.176;9.486;2022-11-15T07:43:39;11.80;99.90
18139;DHT22;9195;53.176;9.486;2022-11-15T07:46:06;11.80;99.90
18139;DHT22;9195;53.176;9.486;2022-11-15T07:48:35;11.80;99.90
18139;DHT22;9195;53.176;9.486;2022-11-15T07:51:00;11.90;99.90
18139;DHT22;9195;53.176;9.486;2022-11-15T07:53:26;11.90;99.90
18139;DHT22;9195;53.176;9.486;2022-11-15T07:55:52;12.00;99.90
18139;DHT22;9195;53.176;9.486;2022-11-15T07:58:19;11.90;99.90
18139;DHT22;9195;53.176;9.486;2022-11-15T08:00:45;11.90;99.90
18139;DHT22;9195;53.176;9.486;2022-11-15T08:03:13;12.00;99.90
18139;DHT22;9195;53.176;9.486;2022-11-15T08:05:40;12.10;99.90
18139;DHT22;9195;53.176;9.486;2022-11-15T08:08:07;12.20;99.90
18139;DHT22;9195;53.176;9.486;2022-11-15T08:10:34;12.30;99.90
18139;DHT22;9195;53.176;9.486;2022-11-15T08:13:02;12.40;99.90
18139;DHT22;9195;53.176;9.486;2022-11-15T08:15:28;12.60;99.90
18139;DHT22;9195;53.176;9.486;2022-11-15T08:17:58;12.70;99.90
18139;DHT22;9195;53.176;9.486;2022-11-15T08:20:25;12.80;99.90
18139;DHT22;9195;53.176;9.486;2022-11-15T08:22:51;12.80;99.90
18139;DHT22;9195;53.176;9.486;2022-11-15T08:25:17;12.90;99.90
18139;DHT22;9195;53.176;9.486;2022-11-15T08:27:43;13.10;99.90
18139;DHT22;9195;53.176;9.486;2022-11-15T08:30:10;13.10;99.90
18139;DHT22;9195;53.176;9.486;2022-11-15T08:32:36;13.30;99.90
18139;DHT22;9195;53.176;9.486;2022-11-15T08:35:02;13.50;99.90
18139;DHT22;9195;53.176;9.486;2022-11-15T08:37:28;13.70;99.90
18139;DHT22;9195;53.176;9.486;2022-11-15T08:39:53;13.80;99.90
18139;DHT22;9195;53.176;9.486;2022-11-15T08:42:19;13.90;99.90
18139;DHT22;9195;53.176;9.486;2022-11-15T08:44:45;14.00;99.90
18139;DHT22;9195;53.176;9.486;2022-11-15T08:47:13;14.20;99.90
18139;DHT22;9195;53.176;9.486;2022-11-15T08:49:39;14.30;99.90
18139;DHT22;9195;53.176;9.486;2022-11-15T08:52:04;14.40;99.90
18139;DHT22;9195;53.176;9.486;2022-11-15T08:54:30;14.30;99.90
18139;DHT22;9195;53.176;9.486;2022-11-15T08:56:57;14.50;99.90
18139;DHT22;9195;53.176;9.486;2022-11-15T08:59:22;14.50;99.90
18139;DHT22;9195;53.176;9.486;2022-11-15T09:01:48;14.50;99.90
18139;DHT22;9195;53.176;9.486;2022-11-15T09:04:14;14.60;99.90
18139;DHT22;9195;53.176;9.486;2022-11-15T09:06:39;14.60;99.90
18139;DHT22;9195;53.176;9.486;2022-11-15T09:09:05;14.60;99.90
18139;DHT22;9195;53.176;9.486;2022-11-15T09:11:31;14.60;99.90
18139;DHT22;9195;53.176;9.486;2022-11-15T09:13:57;14.70;99.90
18139;DHT22;9195;53.176;9.486;2022-11-15T09:16:22;14.80;99.90
18139;DHT22;9195;53.176;9.486;2022-11-15T09:18:48;14.90;99.90
18139;DHT22;9195;53.176;9.486;2022-11-15T09:21:14;14.90;99.90
18139;DHT22;9195;53.176;9.486;2022-11-15T09:23:39;14.80;99.90
18139;DHT22;9195;53.176;9.486;2022-11-15T09:26:06;14.90;99.90
18139;DHT22;9195;53.176;9.486;2022-11-15T09:28:32;14.80;99.90
18139;DHT22;9195;53.176;9.486;2022-11-15T09:31:00;14.60;99.90
18139;DHT22;9195;53.176;9.486;2022-11-15T09:33:26;14.50;99.90
18139;DHT22;9195;53.176;9.486;2022-11-15T09:35:52;14.50;99.90
18139;DHT22;9195;53.176;9.486;2022-11-15T09:38:18;14.50;99.90
18139;DHT22;9195;53.176;9.486;2022-11-15T09:40:49;14.50;99.90
18139;DHT22;9195;53.176;9.486;2022-11-15T09:43:22;14.60;99.90
18139;DHT22;9195;53.176;9.486;2022-11-15T09:48:32;14.60;99.90
18139;DHT22;9195;53.176;9.486;2022-11-15T09:50:59;14.60;99.90
18139;DHT22;9195;53.176;9.486;2022-11-15T09:56:03;14.80;99.90
18139;DHT22;9195;53.176;9.486;2022-11-15T09:58:38;15.00;99.90
18139;DHT22;9195;53.176;9.486;2022-11-15T10:01:12;15.00;99.90
18139;DHT22;9195;53.176;9.486;2022-11-15T10:03:41;15.00;99.90
18139;DHT22;9195;53.176;9.486;2022-11-15T10:06:25;14.80;99.90
18139;DHT22;9195;53.176;9.486;2022-11-15T10:09:03;14.70;99.90
18139;DHT22;9195;53.176;9.486;2022-11-15T10:11:33;14.60;99.90
18139;DHT22;9195;53.176;9.486;2022-11-15T10:14:04;14.50;99.90
18139;DHT22;9195;53.176;9.486;2022-11-15T10:17:02;14.50;99.90
18139;DHT22;9195;53.176;9.486;2022-11-15T10:19:39;14.30;99.90
18139;DHT22;9195;53.176;9.486;2022-11-15T10:27:39;14.20;99.90
18139;DHT22;9195;53.176;9.486;2022-11-15T10:30:18;14.20;99.90
18139;DHT22;9195;53.176;9.486;2022-11-15T10:32:46;14.30;99.90
18139;DHT22;9195;53.176;9.486;2022-11-15T10:35:27;14.30;99.90
18139;DHT22;9195;53.176;9.486;2022-11-15T10:38:05;14.40;99.90
18139;DHT22;9195;53.176;9.486;2022-11-15T10:40:32;14.70;99.90
18139;DHT22;9195;53.176;9.486;2022-11-15T10:43:24;14.90;99.90
18139;DHT22;9195;53.176;9.486;2022-11-15T10:45:51;15.10;99.90
18139;DHT22;9195;53.176;9.486;2022-11-15T10:50:48;16.30;99.90
18139;DHT22;9195;53.176;9.486;2022-11-15T10:53:24;17.60;99.90
18139;DHT22;9195;53.176;9.486;2022-11-15T10:55:56;18.40;99.90
18139;DHT22;9195;53.176;9.486;2022-11-15T10:58:34;19.50;99.90
18139;DHT22;9195;53.176;9.486;2022-11-15T11:01:22;20.00;99.90
18139;DHT22;9195;53.176;9.486;2022-11-15T11:06:26;21.20;99.90
18139;DHT22;9195;53.176;9.486;2022-11-15T11:09:03;21.40;99.90
18139;DHT22;9195;53.176;9.486;2022-11-15T11:11:47;21.80;99.90
18139;DHT22;9195;53.176;9.486;2022-11-15T11:14:22;22.20;99.90
18139;DHT22;9195;53.176;9.486;2022-11-15T11:17:02;23.10;99.90
18139;DHT22;9195;53.176;9.486;2022-11-15T11:22:53;24.60;99.60
18139;DHT22;9195;53.176;9.486;2022-11-15T11:25:30;24.60;98.50
18139;DHT22;9195;53.176;9.486;2022-11-15T11:31:05;24.20;97.90
18139;DHT22;9195;53.176;9.486;2022-11-15T11:36:12;22.50;99.00
18139;DHT22;9195;53.176;9.486;2022-11-15T11:41:57;20.80;99.90
18139;DHT22;9195;53.176;9.486;2022-11-15T11:44:42;21.70;99.90
18139;DHT22;9195;53.176;9.486;2022-11-15T11:47:14;21.60;99.90
18139;DHT22;9195;53.176;9.486;2022-11-15T11:49:45;21.00;99.90
18139;DHT22;9195;53.176;9.486;2022-11-15T11:54:59;19.80;99.90
18139;DHT22;9195;53.176;9.486;2022-11-15T12:00:26;18.90;99.90
18139;DHT22;9195;53.176;9.486;2022-11-15T12:06:09;18.20;99.90
18139;DHT22;9195;53.176;9.486;2022-11-15T12:09:02;18.30;99.90
18139;DHT22;9195;53.176;9.486;2022-11-15T12:15:21;19.00;99.90
18139;DHT22;9195;53.176;9.486;2022-11-15T12:17:40;20.60;99.90
18139;DHT22;9195;53.176;9.486;2022-11-15T12:20:25;21.60;99.90
18139;DHT22;9195;53.176;9.486;2022-11-15T12:23:23;22.40;99.90
18139;DHT22;9195;53.176;9.486;2022-11-15T12:31:15;21.50;99.90
18139;DHT22;9195;53.176;9.486;2022-11-15T12:33:47;21.40;99.90
18139;DHT22;9195;53.176;9.486;2022-11-15T12:41:21;20.90;99.90
18139;DHT22;9195;53.176;9.486;2022-11-15T12:43:48;20.80;99.90
18139;DHT22;9195;53.176;9.486;2022-11-15T12:48:57;20.30;99.90
18139;DHT22;9195;53.176;9.486;2022-11-15T13:00:00;19.30;99.90
18139;DHT22;9195;53.176;9.486;2022-11-15T13:02:35;19.30;99.90
18139;DHT22;9195;53.176;9.486;2022-11-15T13:17:45;18.90;99.90
18139;DHT22;9195;53.176;9.486;2022-11-15T13:20:21;18.70;99.90
18139;DHT22;9195;53.176;9.486;2022-11-15T13:23:13;18.50;99.90
18139;DHT22;9195;53.176;9.486;2022-11-15T13:28:33;18.60;99.90
18139;DHT22;9195;53.176;9.486;2022-11-15T13:33:48;18.30;99.90
18139;DHT22;9195;53.176;9.486;2022-11-15T13:36:26;18.20;99.90
18139;DHT22;9195;53.176;9.486;2022-11-15T13:38:59;18.20;99.90
18139;DHT22;9195;53.176;9.486;2022-11-15T13:41:35;18.30;99.90
18139;DHT22;9195;53.176;9.486;2022-11-15T13:44:03;18.10;99.90
18139;DHT22;9195;53.176;9.486;2022-11-15T13:46:31;17.80;99.90
18139;DHT22;9195;53.176;9.486;2022-11-15T13:49:01;17.70;99.90
18139;DHT22;9195;53.176;9.486;2022-11-15T13:51:30;17.50;99.90
18139;DHT22;9195;53.176;9.486;2022-11-15T13:54:07;17.30;99.90
18139;DHT22;9195;53.176;9.486;2022-11-15T13:56:35;17.30;99.90
18139;DHT22;9195;53.176;9.486;2022-11-15T13:59:16;17.70;99.90
18139;DHT22;9195;53.176;9.486;2022-11-15T14:01:42;18.00;99.90
18139;DHT22;9195;53.176;9.486;2022-11-15T14:04:13;18.10;99.90
18139;DHT22;9195;53.176;9.486;2022-11-15T14:06:46;18.10;99.90
18139;DHT22;9195;53.176;9.486;2022-11-15T14:09:33;18.40;99.90
18139;DHT22;9195;53.176;9.486;2022-11-15T14:12:00;19.50;99.90
18139;DHT22;9195;53.176;9.486;2022-11-15T14:14:28;20.40;99.90
18139;DHT22;9195;53.176;9.486;2022-11-15T14:16:58;20.40;99.90
18139;DHT22;9195;53.176;9.486;2022-11-15T14:22:19;20.80;99.90
18139;DHT22;9195;53.176;9.486;2022-11-15T14:27:38;19.90;99.90
18139;DHT22;9195;53.176;9.486;2022-11-15T14:30:04;19.40;99.90
18139;DHT22;9195;53.176;9.486;2022-11-15T14:32:44;18.70;99.90
18139;DHT22;9195;53.176;9.486;2022-11-15T14:35:20;18.20;99.90
18139;DHT22;9195;53.176;9.486;2022-11-15T14:37:46;18.00;99.90
18139;DHT22;9195;53.176;9.486;2022-11-15T14:40:14;17.90;99.90
18139;DHT22;9195;53.176;9.486;2022-11-15T14:42:41;17.80;99.90
18139;DHT22;9195;53.176;9.486;2022-11-15T14:45:18;17.50;99.90
18139;DHT22;9195;53.176;9.486;2022-11-15T14:47:45;17.30;99.90
18139;DHT22;9195;53.176;9.486;2022-11-15T14:50:12;17.00;99.90
18139;DHT22;9195;53.176;9.486;2022-11-15T14:52:38;16.70;99.90
18139;DHT22;9195;53.176;9.486;2022-11-15T14:55:27;16.40;99.90
18139;DHT22;9195;53.176;9.486;2022-11-15T14:57:54;16.00;99.90
18139;DHT22;9195;53.176;9.486;2022-11-15T15:00:21;15.80;99.90
18139;DHT22;9195;53.176;9.486;2022-11-15T15:02:48;15.60;99.90
18139;DHT22;9195;53.176;9.486;2022-11-15T15:05:23;15.50;99.90
18139;DHT22;9195;53.176;9.486;2022-11-15T15:07:50;15.30;99.90
18139;DHT22;9195;53.176;9.486;2022-11-15T15:10:17;15.20;99.90
18139;DHT22;9195;53.176;9.486;2022-11-15T15:12:43;15.10;99.90
18139;DHT22;9195;53.176;9.486;2022-11-15T15:15:13;15.00;99.90
18139;DHT22;9195;53.176;9.486;2022-11-15T15:17:41;14.90;99.90
18139;DHT22;9195;53.176;9.486;2022-11-15T15:20:07;14.80;99.90
18139;DHT22;9195;53.176;9.486;2022-11-15T15:22:33;14.60;99.90
18139;DHT22;9195;53.176;9.486;2022-11-15T15:24:59;14.50;99.90
18139;DHT22;9195;53.176;9.486;2022-11-15T15:27:24;14.30;99.90
18139;DHT22;9195;53.176;9.486;2022-11-15T15:29:50;14.20;99.90
18139;DHT22;9195;53.176;9.486;2022-11-15T15:32:15;14.00;99.90
18139;DHT22;9195;53.176;9.486;2022-11-15T15:34:41;13.90;99.90
18139;DHT22;9195;53.176;9.486;2022-11-15T15:37:25;13.80;99.90
18139;DHT22;9195;53.176;9.486;2022-11-15T15:39:55;13.70;99.90
18139;DHT22;9195;53.176;9.486;2022-11-15T15:42:22;13.60;99.90
18139;DHT22;9195;53.176;9.486;2022-11-15T15:44:49;13.50;99.90
18139;DHT22;9195;53.176;9.486;2022-11-15T15:47:17;13.40;99.90
18139;DHT22;9195;53.176;9.486;2022-11-15T15:49:43;13.40;99.90
18139;DHT22;9195;53.176;9.486;2022-11-15T15:52:09;13.30;99.90
18139;DHT22;9195;53.176;9.486;2022-11-15T15:54:35;13.20;99.90
18139;DHT22;9195;53.176;9.486;2022-11-15T15:57:01;13.10;99.90
18139;DHT22;9195;53.176;9.486;2022-11-15T15:59:26;13.00;99.90
18139;DHT22;9195;53.176;9.486;2022-11-15T16:01:52;12.90;99.90
18139;DHT22;9195;53.176;9.486;2022-11-15T16:04:18;12.80;99.90
18139;DHT22;9195;53.176;9.486;2022-11-15T16:06:44;12.80;99.90
18139;DHT22;9195;53.176;9.486;2022-11-15T16:09:14;12.70;99.90
18139;DHT22;9195;53.176;9.486;2022-11-15T16:11:44;12.60;99.90
18139;DHT22;9195;53.176;9.486;2022-11-15T16:14:10;12.50;99.90
18139;DHT22;9195;53.176;9.486;2022-11-15T16:16:36;12.40;99.90
18139;DHT22;9195;53.176;9.486;2022-11-15T16:19:03;12.30;99.90
18139;DHT22;9195;53.176;9.486;2022-11-15T16:21:28;12.20;99.90
18139;DHT22;9195;53.176;9.486;2022-11-15T16:23:54;12.10;99.90
18139;DHT22;9195;53.176;9.486;2022-11-15T16:26:29;12.00;99.90
18139;DHT22;9195;53.176;9.486;2022-11-15T16:28:55;12.00;99.90
18139;DHT22;9195;53.176;9.486;2022-11-15T16:31:21;11.90;99.90
18139;DHT22;9195;53.176;9.486;2022-11-15T16:33:46;11.80;99.90
18139;DHT22;9195;53.176;9.486;2022-11-15T16:36:23;11.80;99.90
18139;DHT22;9195;53.176;9.486;2022-11-15T16:38:49;11.70;99.90
18139;DHT22;9195;53.176;9.486;2022-11-15T16:41:16;11.60;99.90
18139;DHT22;9195;53.176;9.486;2022-11-15T16:43:47;11.50;99.90
18139;DHT22;9195;53.176;9.486;2022-11-15T16:46:20;11.50;99.90
18139;DHT22;9195;53.176;9.486;2022-11-15T16:48:47;11.40;99.90
18139;DHT22;9195;53.176;9.486;2022-11-15T16:51:13;11.30;99.90
18139;DHT22;9195;53.176;9.486;2022-11-15T16:53:39;11.30;99.90
18139;DHT22;9195;53.176;9.486;2022-11-15T16:56:18;11.20;99.90
18139;DHT22;9195;53.176;9.486;2022-11-15T16:58:45;11.20;99.90
18139;DHT22;9195;53.176;9.486;2022-11-15T17:01:22;11.20;99.90
18139;DHT22;9195;53.176;9.486;2022-11-15T17:03:48;11.20;99.90
18139;DHT22;9195;53.176;9.486;2022-11-15T17:06:14;11.30;99.90
18139;DHT22;9195;53.176;9.486;2022-11-15T17:08:40;11.30;99.90
18139;DHT22;9195;53.176;9.486;2022-11-15T17:11:07;11.40;99.90
18139;DHT22;9195;53.176;9.486;2022-11-15T17:13:32;11.50;99.90
18139;DHT22;9195;53.176;9.486;2022-11-15T17:16:12;11.50;99.90
18139;DHT22;9195;53.176;9.486;2022-11-15T17:18:38;11.50;99.90
18139;DHT22;9195;53.176;9.486;2022-11-15T17:21:15;11.60;99.90
18139;DHT22;9195;53.176;9.486;2022-11-15T17:23:41;11.60;99.90
18139;DHT22;9195;53.176;9.486;2022-11-15T17:26:08;11.60;99.90
18139;DHT22;9195;53.176;9.486;2022-11-15T17:28:36;11.60;99.90
18139;DHT22;9195;53.176;9.486;2022-11-15T17:31:08;11.60;99.90
18139;DHT22;9195;53.176;9.486;2022-11-15T17:33:35;11.60;99.90
18139;DHT22;9195;53.176;9.486;2022-11-15T17:36:04;11.60;99.90
18139;DHT22;9195;53.176;9.486;2022-11-15T17:38:30;11.60;99.90
18139;DHT22;9195;53.176;9.486;2022-11-15T17:41:08;11.60;99.90
18139;DHT22;9195;53.176;9.486;2022-11-15T17:43:35;11.60;99.90
18139;DHT22;9195;53.176;9.486;2022-11-15T17:46:04;11.50;99.90
18139;DHT22;9195;53.176;9.486;2022-11-15T17:48:30;11.50;99.90
18139;DHT22;9195;53.176;9.486;2022-11-15T17:51:16;11.50;99.90
18139;DHT22;9195;53.176;9.486;2022-11-15T17:53:44;11.50;99.90
18139;DHT22;9195;53.176;9.486;2022-11-15T17:56:11;11.50;99.90
18139;DHT22;9195;53.176;9.486;2022-11-15T17:58:37;11.40;99.90
18139;DHT22;9195;53.176;9.486;2022-11-15T18:01:18;11.40;99.90
18139;DHT22;9195;53.176;9.486;2022-11-15T18:03:44;11.30;99.90
18139;DHT22;9195;53.176;9.486;2022-11-15T18:06:10;11.30;99.90
18139;DHT22;9195;53.176;9.486;2022-11-15T18:08:37;11.30;99.90